Tributaries of Vltava river

river Berounka - water gauge Beroun

Date and time (UTC) H (cm) Q (m³/s)
3. 8. 2021 21:50 128 43.4
3. 8. 2021 21:00 127 43
3. 8. 2021 20:00 127 43
3. 8. 2021 19:00 129 44
3. 8. 2021 18:00 130 45
3. 8. 2021 17:00 131 46
3. 8. 2021 16:00 132 47
3. 8. 2021 15:00 133 48
3. 8. 2021 14:00 134 49
3. 8. 2021 13:00 135 49
3. 8. 2021 12:00 135 49
3. 8. 2021 11:00 135 49
3. 8. 2021 10:00 136 50
3. 8. 2021 09:00 135 49

H - water level, Q - discharge

river Sázava - water gauge Nespeky

Date and time (UTC) H (cm) Q (m³/s)
3. 8. 2021 21:50 62 9.2
3. 8. 2021 21:00 62 9
3. 8. 2021 20:00 62 9
3. 8. 2021 19:00 61 9
3. 8. 2021 18:00 61 9
3. 8. 2021 17:00 61 9
3. 8. 2021 16:00 61 9
3. 8. 2021 15:00 61 9
3. 8. 2021 14:00 61 9
3. 8. 2021 13:00 61 9
3. 8. 2021 12:00 62 9
3. 8. 2021 11:00 62 9
3. 8. 2021 10:00 62 9
3. 8. 2021 09:00 62 9

H - water level, Q - discharge

river Otava - water gauge Písek

Date and time (UTC) H (cm) Q (m³/s)
3. 8. 2021 21:50 94 22.2
3. 8. 2021 21:00 94 22
3. 8. 2021 20:00 94 22
3. 8. 2021 19:00 94 22
3. 8. 2021 18:00 94 22
3. 8. 2021 17:00 93 22
3. 8. 2021 16:00 93 22
3. 8. 2021 15:00 93 22
3. 8. 2021 14:00 94 22
3. 8. 2021 13:00 94 22
3. 8. 2021 12:00 93 22
3. 8. 2021 11:00 94 22
3. 8. 2021 10:00 94 22
3. 8. 2021 09:00 95 23

H - water level, Q - discharge

river Lužnice - water gauge Bechyně

Date and time (UTC) H (cm) Q (m³/s)
3. 8. 2021 21:40 116 11.3
3. 8. 2021 21:00 115 11
3. 8. 2021 20:00 115 11
3. 8. 2021 19:00 115 11
3. 8. 2021 18:00 114 11
3. 8. 2021 17:00 114 11
3. 8. 2021 16:00 112 10
3. 8. 2021 15:00 111 10
3. 8. 2021 14:00 113 10
3. 8. 2021 13:00 116 11
3. 8. 2021 12:00 118 12
3. 8. 2021 11:00 119 12
3. 8. 2021 10:00 119 12
3. 8. 2021 09:00 118 12

H - water level, Q - discharge
Source data
Labe Basin Vltava Basin Povodí Moravy ČHMÚ